sensor_id;sensor_type;location;lat;lon;timestamp;P1;durP1;ratioP1;P2;durP2;ratioP2
962;SDS011;469;48.770;9.176;2023-03-01T04:22:06;27.33;;;12.50;;
962;SDS011;469;48.770;9.176;2023-03-01T09:25:12;35.53;;;13.90;;
962;SDS011;469;48.770;9.176;2023-03-01T09:27:45;34.78;;;15.27;;
962;SDS011;469;48.770;9.176;2023-03-01T09:30:13;31.88;;;14.60;;
962;SDS011;469;48.770;9.176;2023-03-01T09:32:40;38.80;;;16.05;;
962;SDS011;469;48.770;9.176;2023-03-01T09:35:07;34.58;;;14.57;;
962;SDS011;469;48.770;9.176;2023-03-01T09:37:35;31.67;;;14.57;;
962;SDS011;469;48.770;9.176;2023-03-01T09:40:02;37.78;;;14.73;;
962;SDS011;469;48.770;9.176;2023-03-01T09:42:32;34.03;;;15.90;;
962;SDS011;469;48.770;9.176;2023-03-01T09:45:02;37.60;;;15.10;;
962;SDS011;469;48.770;9.176;2023-03-01T09:47:31;36.15;;;15.35;;
962;SDS011;469;48.770;9.176;2023-03-01T09:50:02;36.53;;;15.50;;
962;SDS011;469;48.770;9.176;2023-03-01T09:52:33;35.83;;;15.57;;
962;SDS011;469;48.770;9.176;2023-03-01T09:55:01;36.83;;;15.70;;
962;SDS011;469;48.770;9.176;2023-03-01T09:57:30;31.45;;;15.10;;
962;SDS011;469;48.770;9.176;2023-03-01T10:00:03;24.55;;;13.07;;
962;SDS011;469;48.770;9.176;2023-03-01T10:02:35;31.85;;;14.40;;
962;SDS011;469;48.770;9.176;2023-03-01T10:05:06;31.05;;;13.82;;
962;SDS011;469;48.770;9.176;2023-03-01T10:07:39;30.67;;;14.00;;
962;SDS011;469;48.770;9.176;2023-03-01T10:10:14;30.00;;;12.93;;
962;SDS011;469;48.770;9.176;2023-03-01T10:12:43;29.13;;;14.10;;
962;SDS011;469;48.770;9.176;2023-03-01T10:15:13;33.22;;;16.88;;
962;SDS011;469;48.770;9.176;2023-03-01T10:17:41;26.80;;;12.65;;
962;SDS011;469;48.770;9.176;2023-03-01T10:20:19;33.08;;;14.40;;
962;SDS011;469;48.770;9.176;2023-03-01T10:22:46;28.10;;;13.20;;
962;SDS011;469;48.770;9.176;2023-03-01T10:25:17;31.13;;;14.30;;
962;SDS011;469;48.770;9.176;2023-03-01T10:27:49;30.95;;;14.07;;
962;SDS011;469;48.770;9.176;2023-03-01T10:30:20;28.63;;;13.80;;
962;SDS011;469;48.770;9.176;2023-03-01T10:32:48;27.17;;;13.43;;
962;SDS011;469;48.770;9.176;2023-03-01T10:35:17;33.47;;;14.00;;
962;SDS011;469;48.770;9.176;2023-03-01T10:37:58;28.23;;;13.18;;
962;SDS011;469;48.770;9.176;2023-03-01T10:40:25;30.85;;;13.85;;
962;SDS011;469;48.770;9.176;2023-03-01T10:42:52;38.60;;;13.85;;
962;SDS011;469;48.770;9.176;2023-03-01T10:45:33;28.55;;;13.93;;
962;SDS011;469;48.770;9.176;2023-03-01T10:48:05;29.63;;;13.35;;
962;SDS011;469;48.770;9.176;2023-03-01T10:50:33;28.40;;;12.35;;
962;SDS011;469;48.770;9.176;2023-03-01T10:53:01;29.15;;;13.50;;
962;SDS011;469;48.770;9.176;2023-03-01T10:55:30;31.42;;;13.85;;
962;SDS011;469;48.770;9.176;2023-03-01T10:58:16;27.92;;;13.77;;
962;SDS011;469;48.770;9.176;2023-03-01T11:00:49;34.95;;;13.50;;
962;SDS011;469;48.770;9.176;2023-03-01T11:03:18;32.33;;;13.63;;
962;SDS011;469;48.770;9.176;2023-03-01T11:05:57;30.48;;;14.38;;
962;SDS011;469;48.770;9.176;2023-03-01T11:08:35;26.95;;;12.95;;
962;SDS011;469;48.770;9.176;2023-03-01T11:11:03;27.42;;;13.45;;
962;SDS011;469;48.770;9.176;2023-03-01T11:13:33;26.25;;;13.38;;
962;SDS011;469;48.770;9.176;2023-03-01T11:16:12;26.77;;;13.48;;
962;SDS011;469;48.770;9.176;2023-03-01T11:18:39;29.90;;;13.95;;
962;SDS011;469;48.770;9.176;2023-03-01T11:21:06;28.02;;;13.70;;
962;SDS011;469;48.770;9.176;2023-03-01T11:23:37;30.88;;;13.88;;
962;SDS011;469;48.770;9.176;2023-03-01T11:26:12;33.78;;;13.50;;
962;SDS011;469;48.770;9.176;2023-03-01T11:28:41;27.30;;;13.23;;
962;SDS011;469;48.770;9.176;2023-03-01T11:31:10;28.17;;;13.80;;
962;SDS011;469;48.770;9.176;2023-03-01T11:33:39;28.38;;;13.68;;
962;SDS011;469;48.770;9.176;2023-03-01T11:36:10;28.70;;;13.88;;
962;SDS011;469;48.770;9.176;2023-03-01T11:38:40;26.73;;;13.52;;
962;SDS011;469;48.770;9.176;2023-03-01T11:41:08;26.35;;;12.85;;
962;SDS011;469;48.770;9.176;2023-03-01T11:43:41;31.48;;;14.23;;
962;SDS011;469;48.770;9.176;2023-03-01T11:46:21;33.67;;;13.95;;
962;SDS011;469;48.770;9.176;2023-03-01T11:48:53;32.00;;;13.57;;
962;SDS011;469;48.770;9.176;2023-03-01T11:51:24;25.67;;;12.55;;
962;SDS011;469;48.770;9.176;2023-03-01T11:53:56;30.33;;;14.90;;
962;SDS011;469;48.770;9.176;2023-03-01T11:56:28;30.20;;;13.70;;
962;SDS011;469;48.770;9.176;2023-03-01T12:01:54;32.60;;;14.25;;
962;SDS011;469;48.770;9.176;2023-03-01T12:04:30;33.00;;;13.85;;
962;SDS011;469;48.770;9.176;2023-03-01T12:07:00;28.95;;;14.10;;
962;SDS011;469;48.770;9.176;2023-03-01T12:09:31;26.40;;;13.05;;
962;SDS011;469;48.770;9.176;2023-03-01T12:12:11;28.80;;;14.43;;
962;SDS011;469;48.770;9.176;2023-03-01T12:14:48;29.92;;;13.00;;
962;SDS011;469;48.770;9.176;2023-03-01T12:17:32;28.75;;;13.23;;
962;SDS011;469;48.770;9.176;2023-03-01T12:20:08;25.67;;;11.75;;
962;SDS011;469;48.770;9.176;2023-03-01T12:22:41;33.40;;;13.40;;
962;SDS011;469;48.770;9.176;2023-03-01T12:25:16;29.08;;;12.93;;
962;SDS011;469;48.770;9.176;2023-03-01T12:27:50;24.20;;;11.73;;
962;SDS011;469;48.770;9.176;2023-03-01T12:30:23;26.05;;;13.20;;
962;SDS011;469;48.770;9.176;2023-03-01T12:32:55;26.73;;;13.10;;
962;SDS011;469;48.770;9.176;2023-03-01T12:35:39;26.45;;;12.95;;
962;SDS011;469;48.770;9.176;2023-03-01T12:38:14;30.08;;;14.35;;
962;SDS011;469;48.770;9.176;2023-03-01T12:40:52;28.33;;;13.23;;
962;SDS011;469;48.770;9.176;2023-03-01T12:43:31;26.65;;;13.10;;
962;SDS011;469;48.770;9.176;2023-03-01T12:46:09;25.90;;;12.70;;
962;SDS011;469;48.770;9.176;2023-03-01T12:48:43;24.13;;;12.38;;
962;SDS011;469;48.770;9.176;2023-03-01T12:51:12;25.25;;;12.65;;
962;SDS011;469;48.770;9.176;2023-03-01T12:53:41;24.50;;;11.23;;
962;SDS011;469;48.770;9.176;2023-03-01T12:56:09;25.73;;;11.77;;
962;SDS011;469;48.770;9.176;2023-03-01T12:58:39;25.77;;;11.23;;
962;SDS011;469;48.770;9.176;2023-03-01T13:01:14;24.10;;;11.68;;
962;SDS011;469;48.770;9.176;2023-03-01T13:03:51;22.95;;;11.15;;
962;SDS011;469;48.770;9.176;2023-03-01T13:06:25;22.58;;;11.15;;
962;SDS011;469;48.770;9.176;2023-03-01T13:08:57;25.50;;;11.63;;
962;SDS011;469;48.770;9.176;2023-03-01T13:11:26;24.42;;;11.50;;
962;SDS011;469;48.770;9.176;2023-03-01T13:14:00;27.08;;;12.15;;
962;SDS011;469;48.770;9.176;2023-03-01T13:16:46;22.35;;;11.70;;
962;SDS011;469;48.770;9.176;2023-03-01T13:19:16;23.23;;;11.73;;
962;SDS011;469;48.770;9.176;2023-03-01T13:21:44;26.08;;;11.63;;
962;SDS011;469;48.770;9.176;2023-03-01T13:24:24;50.03;;;12.95;;
962;SDS011;469;48.770;9.176;2023-03-01T13:27:08;26.73;;;12.05;;
962;SDS011;469;48.770;9.176;2023-03-01T13:29:43;25.30;;;11.45;;
962;SDS011;469;48.770;9.176;2023-03-01T13:32:18;23.88;;;10.80;;
962;SDS011;469;48.770;9.176;2023-03-01T13:34:48;21.83;;;10.93;;
962;SDS011;469;48.770;9.176;2023-03-01T13:37:19;22.90;;;11.35;;
962;SDS011;469;48.770;9.176;2023-03-01T13:39:54;27.40;;;12.23;;
962;SDS011;469;48.770;9.176;2023-03-01T13:45:15;25.42;;;12.25;;
962;SDS011;469;48.770;9.176;2023-03-01T13:47:43;30.83;;;12.50;;
962;SDS011;469;48.770;9.176;2023-03-01T13:50:18;24.30;;;11.85;;
962;SDS011;469;48.770;9.176;2023-03-01T13:52:48;25.77;;;12.75;;
962;SDS011;469;48.770;9.176;2023-03-01T13:55:18;25.67;;;12.60;;
962;SDS011;469;48.770;9.176;2023-03-01T13:57:46;32.03;;;13.65;;
962;SDS011;469;48.770;9.176;2023-03-01T14:00:26;42.17;;;12.52;;
962;SDS011;469;48.770;9.176;2023-03-01T14:02:59;28.77;;;14.05;;
962;SDS011;469;48.770;9.176;2023-03-01T14:05:28;29.58;;;13.70;;
962;SDS011;469;48.770;9.176;2023-03-01T14:07:55;30.42;;;13.73;;
962;SDS011;469;48.770;9.176;2023-03-01T14:10:22;27.90;;;14.68;;
962;SDS011;469;48.770;9.176;2023-03-01T14:12:55;31.25;;;14.45;;
962;SDS011;469;48.770;9.176;2023-03-01T14:15:28;32.63;;;15.98;;
962;SDS011;469;48.770;9.176;2023-03-01T14:17:59;28.30;;;14.85;;
962;SDS011;469;48.770;9.176;2023-03-01T14:20:30;32.75;;;14.70;;
962;SDS011;469;48.770;9.176;2023-03-01T14:23:07;28.75;;;14.57;;
962;SDS011;469;48.770;9.176;2023-03-01T14:25:36;30.90;;;14.43;;
962;SDS011;469;48.770;9.176;2023-03-01T14:28:04;31.90;;;13.02;;
962;SDS011;469;48.770;9.176;2023-03-01T14:30:38;34.10;;;14.93;;
962;SDS011;469;48.770;9.176;2023-03-01T14:33:17;31.90;;;14.50;;
962;SDS011;469;48.770;9.176;2023-03-01T14:35:53;32.53;;;15.05;;
962;SDS011;469;48.770;9.176;2023-03-01T14:38:20;29.70;;;14.35;;
962;SDS011;469;48.770;9.176;2023-03-01T14:40:56;33.45;;;15.80;;
962;SDS011;469;48.770;9.176;2023-03-01T14:43:23;32.22;;;14.63;;
962;SDS011;469;48.770;9.176;2023-03-01T14:45:51;30.60;;;13.48;;
962;SDS011;469;48.770;9.176;2023-03-01T14:48:18;32.88;;;14.88;;
962;SDS011;469;48.770;9.176;2023-03-01T14:50:46;32.40;;;14.25;;
962;SDS011;469;48.770;9.176;2023-03-01T14:53:17;30.20;;;14.98;;
962;SDS011;469;48.770;9.176;2023-03-01T14:55:45;31.58;;;15.20;;
962;SDS011;469;48.770;9.176;2023-03-01T14:58:14;32.97;;;14.93;;
962;SDS011;469;48.770;9.176;2023-03-01T15:00:44;26.33;;;13.90;;
962;SDS011;469;48.770;9.176;2023-03-01T15:03:14;31.88;;;13.60;;
962;SDS011;469;48.770;9.176;2023-03-01T15:05:44;28.80;;;13.65;;
962;SDS011;469;48.770;9.176;2023-03-01T15:08:15;31.02;;;14.20;;
962;SDS011;469;48.770;9.176;2023-03-01T15:10:55;29.27;;;14.57;;
962;SDS011;469;48.770;9.176;2023-03-01T15:13:23;32.00;;;15.23;;
962;SDS011;469;48.770;9.176;2023-03-01T15:15:50;29.25;;;15.23;;
962;SDS011;469;48.770;9.176;2023-03-01T15:18:18;31.92;;;15.65;;
962;SDS011;469;48.770;9.176;2023-03-01T15:20:46;29.98;;;14.65;;
962;SDS011;469;48.770;9.176;2023-03-01T15:23:18;26.95;;;15.18;;
962;SDS011;469;48.770;9.176;2023-03-01T15:25:47;33.78;;;16.40;;
962;SDS011;469;48.770;9.176;2023-03-01T15:28:21;29.65;;;15.65;;
962;SDS011;469;48.770;9.176;2023-03-01T15:30:51;28.83;;;15.15;;
962;SDS011;469;48.770;9.176;2023-03-01T15:33:25;31.55;;;14.38;;
962;SDS011;469;48.770;9.176;2023-03-01T15:35:54;28.27;;;14.32;;
962;SDS011;469;48.770;9.176;2023-03-01T15:38:26;32.58;;;13.70;;
962;SDS011;469;48.770;9.176;2023-03-01T15:40:55;29.98;;;13.93;;
962;SDS011;469;48.770;9.176;2023-03-01T15:43:39;29.33;;;15.50;;
962;SDS011;469;48.770;9.176;2023-03-01T15:46:12;32.03;;;14.20;;
962;SDS011;469;48.770;9.176;2023-03-01T15:48:44;27.90;;;13.95;;
962;SDS011;469;48.770;9.176;2023-03-01T15:51:12;27.88;;;14.45;;
962;SDS011;469;48.770;9.176;2023-03-01T15:53:40;30.25;;;14.63;;
962;SDS011;469;48.770;9.176;2023-03-01T15:56:10;28.92;;;14.90;;
962;SDS011;469;48.770;9.176;2023-03-01T15:58:37;35.00;;;15.02;;
962;SDS011;469;48.770;9.176;2023-03-01T16:01:07;40.90;;;18.25;;
962;SDS011;469;48.770;9.176;2023-03-01T16:03:37;30.85;;;14.52;;
962;SDS011;469;48.770;9.176;2023-03-01T16:06:04;29.05;;;14.05;;
962;SDS011;469;48.770;9.176;2023-03-01T16:08:32;29.67;;;14.50;;
962;SDS011;469;48.770;9.176;2023-03-01T16:10:59;29.70;;;13.88;;
962;SDS011;469;48.770;9.176;2023-03-01T16:13:31;29.50;;;13.68;;
962;SDS011;469;48.770;9.176;2023-03-01T16:15:58;29.10;;;14.30;;
962;SDS011;469;48.770;9.176;2023-03-01T16:18:25;28.70;;;14.00;;
962;SDS011;469;48.770;9.176;2023-03-01T16:20:52;29.42;;;14.27;;
962;SDS011;469;48.770;9.176;2023-03-01T16:23:19;27.85;;;14.13;;
962;SDS011;469;48.770;9.176;2023-03-01T16:25:50;29.17;;;14.73;;
962;SDS011;469;48.770;9.176;2023-03-01T16:28:17;32.88;;;14.27;;
962;SDS011;469;48.770;9.176;2023-03-01T16:30:46;27.40;;;12.95;;
962;SDS011;469;48.770;9.176;2023-03-01T16:33:14;31.30;;;14.07;;
962;SDS011;469;48.770;9.176;2023-03-01T16:35:42;35.72;;;14.38;;
962;SDS011;469;48.770;9.176;2023-03-01T16:38:14;34.03;;;13.80;;
962;SDS011;469;48.770;9.176;2023-03-01T16:40:41;26.52;;;13.15;;
962;SDS011;469;48.770;9.176;2023-03-01T16:43:13;27.83;;;13.60;;
962;SDS011;469;48.770;9.176;2023-03-01T16:45:44;29.80;;;14.00;;
962;SDS011;469;48.770;9.176;2023-03-01T16:48:18;29.67;;;13.73;;
962;SDS011;469;48.770;9.176;2023-03-01T16:50:48;27.38;;;13.73;;
962;SDS011;469;48.770;9.176;2023-03-01T16:53:24;31.70;;;14.15;;
962;SDS011;469;48.770;9.176;2023-03-01T16:55:52;28.77;;;14.20;;
962;SDS011;469;48.770;9.176;2023-03-01T16:58:20;26.75;;;13.35;;
962;SDS011;469;48.770;9.176;2023-03-01T17:00:49;30.27;;;13.05;;
962;SDS011;469;48.770;9.176;2023-03-01T17:03:19;31.80;;;13.73;;
962;SDS011;469;48.770;9.176;2023-03-01T17:05:46;36.33;;;14.52;;
962;SDS011;469;48.770;9.176;2023-03-01T17:08:13;30.05;;;13.63;;
962;SDS011;469;48.770;9.176;2023-03-01T17:10:41;34.25;;;14.88;;
962;SDS011;469;48.770;9.176;2023-03-01T17:13:08;30.20;;;14.20;;
962;SDS011;469;48.770;9.176;2023-03-01T17:15:37;30.83;;;14.48;;
962;SDS011;469;48.770;9.176;2023-03-01T17:18:04;43.22;;;14.05;;
962;SDS011;469;48.770;9.176;2023-03-01T17:20:32;28.42;;;12.80;;
962;SDS011;469;48.770;9.176;2023-03-01T17:23:00;35.03;;;13.82;;
962;SDS011;469;48.770;9.176;2023-03-01T17:25:27;29.33;;;14.73;;
962;SDS011;469;48.770;9.176;2023-03-01T17:27:54;26.20;;;12.70;;
962;SDS011;469;48.770;9.176;2023-03-01T17:30:21;31.30;;;13.82;;
962;SDS011;469;48.770;9.176;2023-03-01T17:32:48;28.65;;;14.27;;
962;SDS011;469;48.770;9.176;2023-03-01T17:35:19;29.98;;;12.93;;
962;SDS011;469;48.770;9.176;2023-03-01T17:37:48;29.38;;;13.68;;
962;SDS011;469;48.770;9.176;2023-03-01T17:40:15;32.92;;;14.45;;
962;SDS011;469;48.770;9.176;2023-03-01T17:42:42;37.80;;;15.90;;
962;SDS011;469;48.770;9.176;2023-03-01T17:45:09;33.70;;;13.68;;
962;SDS011;469;48.770;9.176;2023-03-01T17:47:36;27.88;;;13.30;;
962;SDS011;469;48.770;9.176;2023-03-01T17:50:04;27.92;;;13.10;;
962;SDS011;469;48.770;9.176;2023-03-01T17:52:32;32.20;;;14.10;;
962;SDS011;469;48.770;9.176;2023-03-01T17:55:01;31.70;;;14.40;;
962;SDS011;469;48.770;9.176;2023-03-01T17:57:28;30.80;;;12.27;;
962;SDS011;469;48.770;9.176;2023-03-01T17:59:55;31.63;;;13.95;;
962;SDS011;469;48.770;9.176;2023-03-01T18:02:22;31.67;;;14.45;;
962;SDS011;469;48.770;9.176;2023-03-01T18:04:50;27.67;;;13.05;;
962;SDS011;469;48.770;9.176;2023-03-01T18:07:17;27.48;;;13.45;;
962;SDS011;469;48.770;9.176;2023-03-01T18:09:44;27.95;;;12.77;;
962;SDS011;469;48.770;9.176;2023-03-01T18:12:13;33.33;;;15.70;;
962;SDS011;469;48.770;9.176;2023-03-01T18:14:40;30.33;;;15.13;;
962;SDS011;469;48.770;9.176;2023-03-01T18:17:07;31.75;;;13.88;;
962;SDS011;469;48.770;9.176;2023-03-01T18:19:36;30.85;;;14.02;;
962;SDS011;469;48.770;9.176;2023-03-01T18:22:05;28.15;;;13.25;;
962;SDS011;469;48.770;9.176;2023-03-01T18:24:32;33.13;;;14.77;;
962;SDS011;469;48.770;9.176;2023-03-01T18:26:59;32.80;;;13.85;;
962;SDS011;469;48.770;9.176;2023-03-01T18:29:27;45.22;;;15.05;;
962;SDS011;469;48.770;9.176;2023-03-01T18:31:54;34.95;;;14.98;;
962;SDS011;469;48.770;9.176;2023-03-01T18:34:21;28.15;;;13.77;;
962;SDS011;469;48.770;9.176;2023-03-01T18:36:48;37.47;;;14.07;;
962;SDS011;469;48.770;9.176;2023-03-01T18:39:17;35.38;;;14.50;;
962;SDS011;469;48.770;9.176;2023-03-01T18:41:44;30.67;;;13.85;;
962;SDS011;469;48.770;9.176;2023-03-01T18:44:11;39.63;;;14.10;;
962;SDS011;469;48.770;9.176;2023-03-01T18:46:40;33.00;;;15.32;;
962;SDS011;469;48.770;9.176;2023-03-01T18:49:10;35.22;;;14.75;;
962;SDS011;469;48.770;9.176;2023-03-01T18:51:38;36.85;;;14.88;;
962;SDS011;469;48.770;9.176;2023-03-01T18:54:05;35.30;;;15.27;;
962;SDS011;469;48.770;9.176;2023-03-01T18:56:32;38.00;;;15.85;;
962;SDS011;469;48.770;9.176;2023-03-01T18:59:00;35.33;;;15.88;;
962;SDS011;469;48.770;9.176;2023-03-01T19:01:28;32.83;;;14.00;;
962;SDS011;469;48.770;9.176;2023-03-01T19:03:57;35.50;;;16.30;;
962;SDS011;469;48.770;9.176;2023-03-01T19:06:26;33.10;;;15.27;;
962;SDS011;469;48.770;9.176;2023-03-01T19:08:53;32.08;;;14.90;;
962;SDS011;469;48.770;9.176;2023-03-01T19:11:20;37.10;;;16.08;;
962;SDS011;469;48.770;9.176;2023-03-01T19:13:51;32.88;;;14.65;;
962;SDS011;469;48.770;9.176;2023-03-01T19:16:19;33.35;;;15.73;;
962;SDS011;469;48.770;9.176;2023-03-01T19:18:46;35.60;;;15.85;;
962;SDS011;469;48.770;9.176;2023-03-01T19:21:16;41.10;;;17.35;;
962;SDS011;469;48.770;9.176;2023-03-01T19:23:44;37.53;;;15.80;;
962;SDS011;469;48.770;9.176;2023-03-01T19:26:13;47.63;;;16.60;;
962;SDS011;469;48.770;9.176;2023-03-01T19:28:40;39.75;;;17.52;;
962;SDS011;469;48.770;9.176;2023-03-01T19:31:09;38.35;;;15.60;;
962;SDS011;469;48.770;9.176;2023-03-01T19:33:36;45.63;;;17.08;;
962;SDS011;469;48.770;9.176;2023-03-01T19:36:04;38.50;;;16.17;;
962;SDS011;469;48.770;9.176;2023-03-01T19:38:33;35.42;;;15.68;;
962;SDS011;469;48.770;9.176;2023-03-01T19:41:02;40.42;;;17.35;;
962;SDS011;469;48.770;9.176;2023-03-01T19:43:33;36.90;;;15.38;;
962;SDS011;469;48.770;9.176;2023-03-01T19:46:00;34.50;;;16.00;;
962;SDS011;469;48.770;9.176;2023-03-01T19:48:28;37.85;;;15.30;;
962;SDS011;469;48.770;9.176;2023-03-01T19:50:55;40.67;;;16.10;;
962;SDS011;469;48.770;9.176;2023-03-01T19:53:22;44.83;;;16.10;;
962;SDS011;469;48.770;9.176;2023-03-01T19:55:55;36.05;;;15.15;;
962;SDS011;469;48.770;9.176;2023-03-01T19:58:23;34.65;;;14.82;;
962;SDS011;469;48.770;9.176;2023-03-01T20:00:50;40.08;;;16.00;;
962;SDS011;469;48.770;9.176;2023-03-01T20:03:22;42.40;;;17.75;;
962;SDS011;469;48.770;9.176;2023-03-01T20:05:49;41.42;;;16.10;;
962;SDS011;469;48.770;9.176;2023-03-01T20:08:16;42.25;;;16.20;;
962;SDS011;469;48.770;9.176;2023-03-01T20:10:43;41.97;;;16.10;;
962;SDS011;469;48.770;9.176;2023-03-01T20:13:12;39.10;;;17.25;;
962;SDS011;469;48.770;9.176;2023-03-01T20:15:39;34.40;;;16.30;;
962;SDS011;469;48.770;9.176;2023-03-01T20:18:07;36.53;;;15.68;;
962;SDS011;469;48.770;9.176;2023-03-01T20:20:34;41.28;;;16.27;;
962;SDS011;469;48.770;9.176;2023-03-01T20:23:01;38.95;;;16.90;;
962;SDS011;469;48.770;9.176;2023-03-01T20:25:29;36.38;;;15.88;;
962;SDS011;469;48.770;9.176;2023-03-01T20:27:56;33.70;;;15.05;;
962;SDS011;469;48.770;9.176;2023-03-01T20:30:24;31.70;;;14.52;;
962;SDS011;469;48.770;9.176;2023-03-01T20:32:51;36.50;;;17.30;;
962;SDS011;469;48.770;9.176;2023-03-01T20:35:18;34.67;;;15.38;;
962;SDS011;469;48.770;9.176;2023-03-01T20:37:45;37.67;;;16.80;;
962;SDS011;469;48.770;9.176;2023-03-01T20:40:13;36.17;;;14.93;;
962;SDS011;469;48.770;9.176;2023-03-01T20:42:40;45.10;;;17.65;;
962;SDS011;469;48.770;9.176;2023-03-01T20:45:07;38.58;;;16.70;;
962;SDS011;469;48.770;9.176;2023-03-01T20:47:38;37.63;;;17.23;;
962;SDS011;469;48.770;9.176;2023-03-01T20:50:05;41.75;;;16.23;;
962;SDS011;469;48.770;9.176;2023-03-01T20:52:32;42.53;;;17.67;;
962;SDS011;469;48.770;9.176;2023-03-01T20:54:59;43.53;;;17.63;;
962;SDS011;469;48.770;9.176;2023-03-01T20:57:26;43.50;;;17.80;;
962;SDS011;469;48.770;9.176;2023-03-01T20:59:53;34.22;;;16.55;;
962;SDS011;469;48.770;9.176;2023-03-01T21:02:20;41.05;;;16.40;;
962;SDS011;469;48.770;9.176;2023-03-01T21:04:49;39.30;;;16.30;;
962;SDS011;469;48.770;9.176;2023-03-01T21:07:18;41.53;;;16.25;;
962;SDS011;469;48.770;9.176;2023-03-01T21:09:46;37.10;;;16.10;;
962;SDS011;469;48.770;9.176;2023-03-01T21:12:13;45.92;;;16.73;;
962;SDS011;469;48.770;9.176;2023-03-01T21:14:44;41.10;;;16.88;;
962;SDS011;469;48.770;9.176;2023-03-01T21:17:15;41.38;;;17.80;;
962;SDS011;469;48.770;9.176;2023-03-01T21:19:42;36.00;;;16.85;;
962;SDS011;469;48.770;9.176;2023-03-01T21:22:12;40.63;;;18.20;;
962;SDS011;469;48.770;9.176;2023-03-01T21:24:42;41.10;;;17.67;;
962;SDS011;469;48.770;9.176;2023-03-01T21:27:10;39.05;;;16.88;;
962;SDS011;469;48.770;9.176;2023-03-01T21:35:59;36.53;;;15.77;;
962;SDS011;469;48.770;9.176;2023-03-01T21:38:48;40.10;;;17.27;;
962;SDS011;469;48.770;9.176;2023-03-01T21:41:19;53.95;;;17.02;;
962;SDS011;469;48.770;9.176;2023-03-01T21:47:38;38.67;;;15.43;;
962;SDS011;469;48.770;9.176;2023-03-01T21:50:04;41.17;;;16.75;;
962;SDS011;469;48.770;9.176;2023-03-01T21:52:47;39.53;;;17.85;;
962;SDS011;469;48.770;9.176;2023-03-01T21:55:21;45.85;;;17.88;;
962;SDS011;469;48.770;9.176;2023-03-01T21:57:50;43.00;;;16.65;;
962;SDS011;469;48.770;9.176;2023-03-01T22:00:31;43.22;;;16.90;;
962;SDS011;469;48.770;9.176;2023-03-01T22:03:31;36.95;;;16.63;;
962;SDS011;469;48.770;9.176;2023-03-01T22:06:23;37.75;;;16.17;;
962;SDS011;469;48.770;9.176;2023-03-01T22:09:15;45.25;;;17.17;;
962;SDS011;469;48.770;9.176;2023-03-01T22:11:53;40.28;;;15.70;;
962;SDS011;469;48.770;9.176;2023-03-01T22:14:32;39.70;;;16.90;;
962;SDS011;469;48.770;9.176;2023-03-01T22:17:16;39.15;;;16.63;;
962;SDS011;469;48.770;9.176;2023-03-01T22:19:48;40.25;;;15.88;;
962;SDS011;469;48.770;9.176;2023-03-01T22:22:24;35.92;;;15.48;;
962;SDS011;469;48.770;9.176;2023-03-01T22:25:01;41.13;;;15.55;;
962;SDS011;469;48.770;9.176;2023-03-01T22:27:35;38.50;;;16.65;;
962;SDS011;469;48.770;9.176;2023-03-01T22:33:15;44.03;;;17.45;;
962;SDS011;469;48.770;9.176;2023-03-01T22:35:53;39.47;;;16.88;;
962;SDS011;469;48.770;9.176;2023-03-01T22:38:25;45.13;;;16.70;;
962;SDS011;469;48.770;9.176;2023-03-01T22:41:01;35.97;;;15.93;;
962;SDS011;469;48.770;9.176;2023-03-01T22:43:33;39.90;;;15.45;;
962;SDS011;469;48.770;9.176;2023-03-01T22:46:12;40.70;;;16.52;;
962;SDS011;469;48.770;9.176;2023-03-01T22:48:49;44.95;;;17.55;;
962;SDS011;469;48.770;9.176;2023-03-01T22:51:23;46.40;;;16.95;;
962;SDS011;469;48.770;9.176;2023-03-01T22:53:55;39.15;;;17.00;;
962;SDS011;469;48.770;9.176;2023-03-01T22:56:30;42.15;;;16.30;;
962;SDS011;469;48.770;9.176;2023-03-01T22:59:00;49.30;;;18.48;;
962;SDS011;469;48.770;9.176;2023-03-01T23:01:34;41.30;;;16.38;;
962;SDS011;469;48.770;9.176;2023-03-01T23:04:02;38.75;;;16.40;;
962;SDS011;469;48.770;9.176;2023-03-01T23:06:29;42.85;;;17.15;;
962;SDS011;469;48.770;9.176;2023-03-01T23:08:56;35.85;;;15.25;;
962;SDS011;469;48.770;9.176;2023-03-01T23:11:27;35.30;;;16.27;;
962;SDS011;469;48.770;9.176;2023-03-01T23:13:57;34.85;;;15.93;;
962;SDS011;469;48.770;9.176;2023-03-01T23:16:25;38.05;;;16.33;;
962;SDS011;469;48.770;9.176;2023-03-01T23:18:53;37.60;;;15.93;;
962;SDS011;469;48.770;9.176;2023-03-01T23:21:22;39.95;;;17.75;;
962;SDS011;469;48.770;9.176;2023-03-01T23:23:49;44.15;;;17.60;;
962;SDS011;469;48.770;9.176;2023-03-01T23:26:16;39.20;;;16.27;;
962;SDS011;469;48.770;9.176;2023-03-01T23:28:46;33.40;;;15.57;;
962;SDS011;469;48.770;9.176;2023-03-01T23:31:14;41.88;;;17.00;;
962;SDS011;469;48.770;9.176;2023-03-01T23:33:45;39.17;;;17.85;;
962;SDS011;469;48.770;9.176;2023-03-01T23:36:14;39.97;;;17.67;;
962;SDS011;469;48.770;9.176;2023-03-01T23:38:43;47.03;;;19.25;;
962;SDS011;469;48.770;9.176;2023-03-01T23:41:10;43.30;;;18.10;;
962;SDS011;469;48.770;9.176;2023-03-01T23:43:37;39.28;;;17.27;;
962;SDS011;469;48.770;9.176;2023-03-01T23:46:04;35.13;;;15.82;;
962;SDS011;469;48.770;9.176;2023-03-01T23:48:31;34.45;;;15.60;;
962;SDS011;469;48.770;9.176;2023-03-01T23:51:03;35.58;;;16.08;;
962;SDS011;469;48.770;9.176;2023-03-01T23:53:30;42.78;;;16.65;;
962;SDS011;469;48.770;9.176;2023-03-01T23:55:59;35.00;;;15.82;;
962;SDS011;469;48.770;9.176;2023-03-01T23:58:25;37.38;;;16.67;;
